Time;durP1;ratioP1;P1;durP2;ratioP2;P2;SDS_P1;SDS_P2;PMS_P1;PMS_P2;Temp;Humidity;BMP_temperature;BMP_pressure;BME280_temperature;BME280_humidity;BME280_pressure;Samples;Min_cycle;Max_cycle;Signal;HPM_P1;HPM_P2
2022/06/08 00:00:43;;;;;;;3.33;1.90;;;18.30;99.90;;;;;;4187140;28;20620;-81
2022/06/08 00:02:50;;;;;;;3.10;1.90;;;18.30;99.90;;;;;;4195931;28;20232;-81
2022/06/08 00:04:52;;;;;;;5.50;2.50;;;18.30;99.90;;;;;;4197375;28;20621;-81
2022/06/08 00:06:54;;;;;;;9.77;3.03;;;18.30;99.90;;;;;;4198180;28;20680;-81
2022/06/08 00:08:56;;;;;;;6.63;2.77;;;18.20;99.90;;;;;;4194787;28;20208;-81
2022/06/08 00:11:00;;;;;;;5.80;2.37;;;18.20;99.90;;;;;;4205114;28;20728;-80
2022/06/08 00:13:02;;;;;;;3.23;1.93;;;18.20;99.90;;;;;;4191713;28;20207;-80
2022/06/08 00:15:06;;;;;;;3.50;1.90;;;18.20;99.90;;;;;;4191690;28;20268;-81
2022/06/08 00:17:08;;;;;;;2.70;1.80;;;18.10;99.90;;;;;;4213447;28;20240;-81
2022/06/08 00:19:10;;;;;;;2.80;1.50;;;18.10;99.90;;;;;;4208777;28;20242;-81
2022/06/08 00:21:14;;;;;;;2.90;1.70;;;18.10;99.90;;;;;;4209441;28;20242;-81
2022/06/08 00:23:16;;;;;;;2.93;1.80;;;18.10;99.90;;;;;;4214849;28;20231;-81
2022/06/08 00:25:18;;;;;;;2.07;1.50;;;18.10;99.90;;;;;;4212610;28;20225;-81
2022/06/08 00:27:22;;;;;;;3.23;1.47;;;18.00;99.90;;;;;;4199175;28;20211;-81
2022/06/08 00:29:24;;;;;;;1.90;1.30;;;18.00;99.90;;;;;;4208417;28;20280;-82
2022/06/08 00:31:26;;;;;;;2.77;1.30;;;17.90;99.90;;;;;;4191395;28;20279;-82
2022/06/08 00:33:28;;;;;;;1.50;1.13;;;17.90;99.90;;;;;;4191386;28;20909;-82
2022/06/08 00:35:30;;;;;;;1.50;1.20;;;17.90;99.90;;;;;;4187983;28;20228;-81
2022/06/08 00:37:32;;;;;;;1.40;1.20;;;17.90;99.90;;;;;;4194548;28;20608;-81
2022/06/08 00:39:35;;;;;;;2.10;1.40;;;17.80;99.90;;;;;;4192816;28;20257;-82
2022/06/08 00:41:43;;;;;;;3.23;1.33;;;17.90;99.90;;;;;;4195966;28;20264;-81
2022/06/08 00:43:47;;;;;;;1.77;1.47;;;17.80;99.90;;;;;;4194747;28;20237;-82
2022/06/08 00:45:49;;;;;;;2.03;1.30;;;17.80;99.90;;;;;;4195235;28;20221;-82
2022/06/08 00:47:56;;;;;;;3.30;1.37;;;17.80;99.90;;;;;;4193906;28;20334;-81
2022/06/08 00:50:01;;;;;;;4.00;1.60;;;17.80;99.90;;;;;;4187475;28;20276;-81
2022/06/08 00:52:04;;;;;;;4.17;1.60;;;17.80;99.90;;;;;;4186866;28;20209;-81
2022/06/08 00:54:11;;;;;;;2.80;1.30;;;17.80;99.90;;;;;;4192760;28;20259;-82
2022/06/08 00:56:19;;;;;;;2.20;1.43;;;17.80;99.90;;;;;;4191514;28;20242;-82
2022/06/08 00:58:25;;;;;;;2.00;1.30;;;17.80;99.90;;;;;;4186754;28;20752;-82
2022/06/08 01:00:31;;;;;;;1.57;1.20;;;17.80;99.90;;;;;;4190921;28;20234;-82
2022/06/08 01:02:33;;;;;;;2.60;1.43;;;17.80;99.90;;;;;;4190383;28;20293;-82
2022/06/08 01:04:35;;;;;;;1.43;1.00;;;17.70;99.90;;;;;;4190499;28;20523;-82
2022/06/08 01:06:38;;;;;;;1.93;1.10;;;17.70;99.90;;;;;;4185508;28;20472;-82
2022/06/08 01:08:43;;;;;;;2.53;1.20;;;17.80;99.90;;;;;;4190583;28;20229;-82
2022/06/08 01:10:47;;;;;;;2.53;1.10;;;17.70;99.90;;;;;;4187095;28;20309;-82
2022/06/08 01:12:50;;;;;;;2.13;1.10;;;17.80;99.90;;;;;;4182732;28;20207;-82
2022/06/08 01:14:52;;;;;;;2.23;1.07;;;17.70;99.90;;;;;;4192201;28;20301;-82
2022/06/08 01:17:02;;;;;;;1.67;1.20;;;17.70;99.90;;;;;;4182502;28;20211;-81
2022/06/08 01:19:05;;;;;;;1.27;1.17;;;17.70;99.90;;;;;;4191610;28;20305;-81
2022/06/08 01:21:44;;;;;;;2.37;1.23;;;17.70;99.90;;;;;;4187860;28;20288;-81
2022/06/08 01:23:49;;;;;;;6.70;1.20;;;17.70;99.90;;;;;;4187792;28;20233;-81
2022/06/08 01:26:09;;;;;;;1.40;1.10;;;17.50;99.90;;;;;;4190257;28;20277;-81
2022/06/08 01:28:20;;;;;;;1.77;0.80;;;17.60;99.90;;;;;;4192284;28;20210;-81
2022/06/08 01:30:24;;;;;;;3.47;1.63;;;17.60;99.90;;;;;;4186068;28;20238;-80
2022/06/08 01:32:33;;;;;;;2.70;1.30;;;17.60;99.90;;;;;;4175189;28;21097;-83
2022/06/08 01:34:44;;;;;;;3.07;1.10;;;17.50;99.90;;;;;;4179455;28;20582;-80
2022/06/08 01:36:57;;;;;;;1.37;1.10;;;17.50;99.90;;;;;;4193315;28;20213;-81
2022/06/08 01:39:05;;;;;;;1.40;1.07;;;17.50;99.90;;;;;;4191319;28;20675;-81
2022/06/08 01:41:31;;;;;;;3.17;0.80;;;17.50;99.90;;;;;;4191084;28;20758;-81
2022/06/08 01:43:47;;;;;;;3.77;1.37;;;17.40;99.90;;;;;;4196096;28;20242;-81
2022/06/08 01:46:02;;;;;;;1.43;0.90;;;17.40;99.90;;;;;;4210156;28;20505;-81
2022/06/08 01:48:43;;;;;;;1.67;1.00;;;17.40;99.90;;;;;;4204541;28;20273;-81
2022/06/08 01:50:56;;;;;;;1.97;0.90;;;17.40;99.90;;;;;;4182493;22;20288;-82
2022/06/08 01:53:03;;;;;;;0.90;0.80;;;17.30;99.90;;;;;;4156497;28;20286;-82
2022/06/08 01:55:12;;;;;;;3.03;1.00;;;17.30;99.90;;;;;;4151098;28;20211;-82
2022/06/08 01:57:30;;;;;;;3.07;0.97;;;17.30;99.90;;;;;;4162258;28;20210;-81
2022/06/08 01:59:41;;;;;;;2.17;1.57;;;17.20;99.90;;;;;;4157453;28;20206;-82
2022/06/08 02:01:52;;;;;;;1.20;0.77;;;17.20;99.90;;;;;;4154083;28;20723;-82
2022/06/08 02:04:08;;;;;;;2.53;1.03;;;17.20;99.90;;;;;;4144780;28;20232;-81
2022/06/08 02:06:19;;;;;;;1.63;0.90;;;17.20;99.90;;;;;;4161650;28;20206;-81
2022/06/08 02:08:26;;;;;;;1.40;0.83;;;17.20;99.90;;;;;;4153554;28;20304;-82
2022/06/08 02:10:37;;;;;;;2.13;1.10;;;17.10;99.90;;;;;;4154333;28;20753;-82
2022/06/08 02:12:46;;;;;;;1.73;0.90;;;17.10;99.90;;;;;;4151291;28;20300;-82
2022/06/08 02:14:51;;;;;;;1.37;0.90;;;17.10;99.90;;;;;;4140072;28;20218;-81
2022/06/08 02:16:56;;;;;;;3.80;1.07;;;17.10;99.90;;;;;;4143757;28;20293;-81
2022/06/08 02:19:06;;;;;;;2.57;0.90;;;17.10;99.90;;;;;;4159448;28;20260;-82
2022/06/08 02:21:11;;;;;;;1.87;1.00;;;17.10;99.90;;;;;;4148492;28;20715;-81
2022/06/08 02:23:19;;;;;;;2.63;1.30;;;17.00;99.90;;;;;;4164400;28;20227;-81
2022/06/08 02:25:25;;;;;;;1.50;1.00;;;17.00;99.90;;;;;;4154025;28;20786;-80
2022/06/08 02:27:31;;;;;;;2.63;1.10;;;17.00;99.90;;;;;;4172022;28;20222;-81
2022/06/08 02:29:40;;;;;;;2.40;0.93;;;17.00;99.90;;;;;;4149892;28;20755;-80
2022/06/08 02:31:47;;;;;;;1.77;1.00;;;16.90;99.90;;;;;;4152670;28;20211;-80
2022/06/08 02:36:23;;;;;;;1.53;0.90;;;16.90;99.90;;;;;;4167583;28;20680;-81
2022/06/08 02:38:31;;;;;;;0.70;0.70;;;16.90;99.90;;;;;;4148560;28;20614;-80
2022/06/08 02:40:37;;;;;;;1.27;1.03;;;16.80;99.90;;;;;;4142859;28;20269;-80
2022/06/08 02:42:45;;;;;;;1.90;1.10;;;16.80;99.90;;;;;;4155261;28;20330;-80
2022/06/08 02:44:51;;;;;;;1.97;1.00;;;16.70;99.90;;;;;;4144324;28;20251;-80
2022/06/08 02:47:01;;;;;;;1.87;1.00;;;16.70;99.90;;;;;;4148337;28;20239;-81
2022/06/08 02:49:05;;;;;;;2.53;1.10;;;16.70;99.90;;;;;;4145331;28;20231;-80
2022/06/08 02:51:07;;;;;;;2.73;1.00;;;16.70;99.90;;;;;;4154405;28;20258;-80
2022/06/08 02:53:42;;;;;;;1.20;0.80;;;16.70;99.90;;;;;;4146477;28;20230;-81
2022/06/08 02:55:50;;;;;;;2.27;0.97;;;16.70;99.90;;;;;;4145383;28;20264;-81
2022/06/08 02:58:01;;;;;;;1.80;1.30;;;16.60;99.90;;;;;;4136012;28;20306;-81
2022/06/08 03:00:08;;;;;;;1.40;0.93;;;16.60;99.90;;;;;;4156850;28;20695;-82
2022/06/08 03:02:19;;;;;;;2.20;1.20;;;16.60;99.90;;;;;;4161646;28;20212;-81
2022/06/08 03:04:25;;;;;;;4.67;1.20;;;16.50;99.90;;;;;;4162293;28;20230;-81
2022/06/08 03:06:34;;;;;;;3.10;1.20;;;16.50;99.90;;;;;;4162834;28;20231;-81
2022/06/08 03:08:43;;;;;;;1.90;1.00;;;16.50;99.90;;;;;;4153846;28;20245;-80
2022/06/08 03:10:47;;;;;;;1.13;1.03;;;16.50;99.90;;;;;;4165065;28;20310;-80
2022/06/08 03:12:57;;;;;;;2.13;1.20;;;16.50;99.90;;;;;;4172590;28;20659;-80
2022/06/08 03:15:01;;;;;;;2.63;1.43;;;16.20;99.90;;;;;;4164114;28;20211;-80
2022/06/08 03:17:07;;;;;;;2.80;1.60;;;16.40;99.90;;;;;;4163626;28;20597;-80
2022/06/08 03:19:10;;;;;;;1.63;1.20;;;16.30;99.90;;;;;;4162740;28;20214;-80
2022/06/08 03:21:12;;;;;;;1.17;1.03;;;16.30;99.90;;;;;;4160289;28;20317;-80
2022/06/08 03:23:14;;;;;;;1.87;1.03;;;16.20;99.90;;;;;;4174534;28;20613;-80
2022/06/08 03:25:17;;;;;;;3.93;1.10;;;16.30;99.90;;;;;;4160669;28;20207;-81
2022/06/08 03:27:20;;;;;;;1.23;1.13;;;16.30;99.90;;;;;;4159474;28;20274;-81
2022/06/08 03:29:23;;;;;;;2.20;1.07;;;16.30;99.90;;;;;;4160725;28;20249;-81
2022/06/08 03:31:25;;;;;;;2.47;0.83;;;16.20;99.90;;;;;;4182158;28;20253;-81
2022/06/08 03:33:27;;;;;;;3.20;1.20;;;16.20;99.90;;;;;;4166808;28;20230;-81
2022/06/08 03:35:29;;;;;;;2.80;1.10;;;16.20;99.90;;;;;;4158364;28;20292;-81
2022/06/08 03:37:31;;;;;;;1.33;1.00;;;16.20;99.90;;;;;;4165736;28;20218;-80
2022/06/08 03:39:34;;;;;;;3.33;1.30;;;16.20;99.90;;;;;;4153201;28;20215;-80
2022/06/08 03:41:36;;;;;;;1.43;0.90;;;16.10;99.90;;;;;;4158695;28;20203;-80
2022/06/08 03:43:38;;;;;;;1.90;1.10;;;16.10;99.90;;;;;;4162904;28;20668;-81
2022/06/08 03:45:44;;;;;;;3.97;1.20;;;16.10;99.90;;;;;;4159372;28;20266;-81
2022/06/08 03:47:50;;;;;;;2.33;1.00;;;16.10;99.90;;;;;;4161540;28;20278;-81
2022/06/08 03:49:55;;;;;;;3.40;1.20;;;16.10;99.90;;;;;;4163514;28;20262;-80
2022/06/08 03:52:00;;;;;;;0.90;0.80;;;16.00;99.90;;;;;;4157351;28;20242;-81
2022/06/08 03:54:06;;;;;;;3.63;1.20;;;16.00;99.90;;;;;;4159024;28;20208;-79
2022/06/08 03:56:09;;;;;;;1.57;0.80;;;16.00;99.90;;;;;;4159046;28;20199;-82
2022/06/08 03:58:11;;;;;;;1.97;1.17;;;16.00;99.90;;;;;;4174704;28;20218;-81
2022/06/08 04:00:15;;;;;;;2.73;1.30;;;16.10;99.90;;;;;;4154708;28;20682;-80
2022/06/08 04:02:18;;;;;;;1.77;1.20;;;16.00;99.90;;;;;;4156084;28;20595;-80
2022/06/08 04:04:20;;;;;;;2.03;1.20;;;16.00;99.90;;;;;;4160329;28;20249;-80
2022/06/08 04:06:23;;;;;;;1.63;1.17;;;16.00;99.90;;;;;;4160658;28;20203;-81
2022/06/08 04:08:25;;;;;;;1.23;1.10;;;16.10;99.90;;;;;;4155145;28;20207;-81
2022/06/08 04:10:27;;;;;;;1.37;1.27;;;16.00;99.90;;;;;;4161820;28;20241;-81
2022/06/08 04:12:28;;;;;;;1.30;1.10;;;16.00;99.90;;;;;;4172620;28;20207;-81
2022/06/08 04:14:30;;;;;;;1.80;1.10;;;16.00;99.90;;;;;;4162577;28;20518;-81
2022/06/08 04:16:33;;;;;;;2.20;1.23;;;16.00;99.90;;;;;;4160113;28;20293;-81
2022/06/08 04:18:37;;;;;;;5.03;1.47;;;16.00;99.90;;;;;;4157216;28;20212;-81
2022/06/08 04:20:40;;;;;;;2.27;1.47;;;16.10;99.90;;;;;;4145241;28;20227;-81
2022/06/08 04:22:42;;;;;;;4.00;1.50;;;16.30;99.90;;;;;;4144587;28;20207;-81
2022/06/08 04:24:45;;;;;;;3.70;1.40;;;16.00;99.90;;;;;;4161915;28;20305;-81
2022/06/08 04:26:47;;;;;;;2.93;1.30;;;16.00;99.90;;;;;;4163359;28;20215;-81
2022/06/08 04:28:49;;;;;;;2.37;1.43;;;16.10;99.90;;;;;;4173247;28;20217;-81
2022/06/08 04:30:52;;;;;;;2.83;1.40;;;15.90;99.90;;;;;;4174179;28;20312;-82
2022/06/08 04:32:54;;;;;;;2.73;1.60;;;16.00;99.90;;;;;;4159854;28;20235;-81
2022/06/08 04:34:57;;;;;;;3.20;1.63;;;16.00;99.90;;;;;;4150338;28;20200;-81
2022/06/08 04:36:59;;;;;;;2.70;1.50;;;16.00;99.90;;;;;;4155025;28;20238;-81
2022/06/08 04:39:01;;;;;;;2.63;1.60;;;16.00;99.90;;;;;;4158775;28;20239;-81
2022/06/08 04:41:07;;;;;;;4.70;2.20;;;16.00;99.90;;;;;;4155590;28;20314;-82
2022/06/08 04:43:09;;;;;;;5.27;3.03;;;16.00;99.90;;;;;;4160881;28;20594;-81
2022/06/08 04:45:12;;;;;;;3.27;2.17;;;16.00;99.90;;;;;;4148701;28;20246;-81
2022/06/08 04:47:14;;;;;;;2.77;1.73;;;16.00;99.90;;;;;;4151569;28;20211;-81
2022/06/08 04:49:16;;;;;;;3.13;1.47;;;16.10;99.90;;;;;;4169093;28;20611;-81
2022/06/08 04:51:20;;;;;;;1.90;1.30;;;16.20;99.90;;;;;;4173157;28;20233;-81
2022/06/08 04:53:22;;;;;;;5.47;1.60;;;16.00;99.90;;;;;;4160252;28;20656;-81
2022/06/08 04:55:24;;;;;;;4.13;1.70;;;16.00;99.90;;;;;;4158347;28;20203;-81
2022/06/08 04:57:29;;;;;;;2.57;1.57;;;16.10;99.90;;;;;;4157325;28;20215;-81
2022/06/08 04:59:31;;;;;;;5.27;1.83;;;16.10;99.90;;;;;;4157614;28;20211;-81
2022/06/08 05:01:33;;;;;;;6.57;1.67;;;16.10;99.90;;;;;;4158952;28;20593;-81
2022/06/08 05:03:36;;;;;;;2.37;1.80;;;16.00;99.90;;;;;;4152577;28;20208;-81
2022/06/08 05:05:40;;;;;;;2.83;1.43;;;16.10;99.90;;;;;;4148602;28;20241;-81
2022/06/08 05:07:46;;;;;;;3.90;1.43;;;16.10;99.90;;;;;;4146715;28;20703;-81
2022/06/08 05:09:48;;;;;;;2.90;1.50;;;16.10;99.90;;;;;;4155190;28;20222;-81
2022/06/08 05:11:50;;;;;;;1.50;1.33;;;16.10;99.90;;;;;;4145372;28;20672;-81
2022/06/08 05:13:52;;;;;;;3.20;1.40;;;16.10;99.90;;;;;;4171016;28;20292;-81
2022/06/08 05:15:54;;;;;;;3.20;1.47;;;16.20;99.90;;;;;;4155327;28;20311;-81
2022/06/08 05:17:57;;;;;;;3.23;1.27;;;16.20;99.90;;;;;;4152304;28;20581;-81
2022/06/08 05:19:59;;;;;;;2.93;1.97;;;16.20;99.90;;;;;;4153993;28;20226;-81
2022/06/08 05:22:01;;;;;;;7.70;1.60;;;16.30;99.90;;;;;;4159133;28;20203;-81
2022/06/08 05:24:05;;;;;;;1.90;1.30;;;16.30;99.90;;;;;;4156221;28;20475;-81
2022/06/08 05:26:09;;;;;;;3.17;1.33;;;16.40;99.90;;;;;;4156430;28;20210;-81
2022/06/08 05:28:13;;;;;;;3.07;1.23;;;16.80;99.90;;;;;;4156906;28;20306;-80
2022/06/08 05:30:18;;;;;;;2.63;1.20;;;16.40;99.90;;;;;;4166839;28;20226;-81
2022/06/08 05:32:20;;;;;;;3.73;1.33;;;16.50;99.90;;;;;;4150118;28;20207;-81
2022/06/08 05:34:22;;;;;;;3.07;1.30;;;16.50;99.90;;;;;;4153162;28;20661;-81
2022/06/08 05:36:24;;;;;;;3.07;1.50;;;16.50;99.90;;;;;;4150904;28;20230;-81
2022/06/08 05:38:26;;;;;;;2.00;1.40;;;16.50;99.90;;;;;;4172810;28;20634;-81
2022/06/08 05:40:32;;;;;;;3.47;1.17;;;16.60;99.90;;;;;;4158230;28;20234;-81
2022/06/08 05:42:35;;;;;;;4.17;1.63;;;16.70;99.90;;;;;;4151680;28;20208;-81
2022/06/08 05:44:36;;;;;;;2.23;1.30;;;16.70;99.90;;;;;;4156482;28;20278;-81
2022/06/08 05:46:38;;;;;;;2.10;1.10;;;16.70;99.90;;;;;;4156155;28;20293;-81
2022/06/08 05:48:40;;;;;;;3.20;1.63;;;16.80;99.90;;;;;;4158990;28;20747;-81
2022/06/08 05:50:43;;;;;;;2.93;1.20;;;16.80;99.90;;;;;;4158462;28;20243;-81
2022/06/08 05:52:45;;;;;;;1.87;1.23;;;16.90;99.90;;;;;;4159878;28;20235;-81
2022/06/08 05:54:47;;;;;;;1.87;1.33;;;16.90;99.90;;;;;;4160037;28;20684;-81
2022/06/08 05:56:54;;;;;;;6.90;1.50;;;17.00;99.90;;;;;;4157088;28;20544;-81
2022/06/08 05:58:55;;;;;;;3.47;1.47;;;17.00;99.90;;;;;;4153082;28;20257;-81
2022/06/08 06:00:57;;;;;;;8.07;1.43;;;17.00;99.90;;;;;;4158432;28;20234;-80
2022/06/08 06:03:00;;;;;;;1.30;1.20;;;17.10;99.90;;;;;;4158577;28;20207;-82
2022/06/08 06:05:02;;;;;;;3.27;1.50;;;17.20;99.90;;;;;;4157831;28;20227;-81
2022/06/08 06:07:05;;;;;;;1.83;1.10;;;17.30;99.90;;;;;;4156034;28;20300;-82
2022/06/08 06:09:08;;;;;;;2.03;1.30;;;17.30;99.90;;;;;;4155691;28;20211;-82
2022/06/08 06:11:10;;;;;;;2.30;1.30;;;17.30;99.90;;;;;;4159936;28;20581;-82
2022/06/08 06:13:18;;;;;;;1.03;1.00;;;17.30;99.90;;;;;;4162616;28;20291;-82
2022/06/08 06:15:20;;;;;;;4.80;1.20;;;17.40;99.90;;;;;;4159273;28;20690;-82
2022/06/08 06:17:22;;;;;;;4.63;1.37;;;17.40;99.90;;;;;;4161572;28;20873;-82
2022/06/08 06:19:24;;;;;;;4.80;1.13;;;17.50;99.90;;;;;;4160286;28;20211;-81
2022/06/08 06:21:26;;;;;;;1.60;1.40;;;17.50;99.90;;;;;;4167099;28;20249;-82
2022/06/08 06:23:29;;;;;;;1.97;1.30;;;17.60;99.90;;;;;;4157415;28;20219;-81
2022/06/08 06:25:31;;;;;;;3.23;1.37;;;17.60;99.90;;;;;;4156727;28;20224;-81
2022/06/08 06:27:33;;;;;;;2.13;1.40;;;17.70;99.90;;;;;;4153837;28;20201;-82
2022/06/08 06:29:36;;;;;;;3.67;1.37;;;17.70;99.90;;;;;;4151296;28;20209;-82
2022/06/08 06:31:45;;;;;;;3.03;1.47;;;17.80;99.90;;;;;;4153782;28;20587;-82
2022/06/08 06:33:47;;;;;;;2.60;1.20;;;17.80;99.90;;;;;;4152037;28;20214;-82
2022/06/08 06:35:49;;;;;;;1.47;1.33;;;17.80;99.90;;;;;;4170022;28;20207;-81
2022/06/08 06:37:52;;;;;;;1.93;1.23;;;18.10;99.90;;;;;;4157999;28;20219;-82
2022/06/08 06:39:54;;;;;;;3.73;1.20;;;17.90;99.90;;;;;;4155371;28;20232;-81
2022/06/08 06:42:00;;;;;;;1.33;1.17;;;17.90;99.90;;;;;;4158811;28;20230;-81
2022/06/08 06:44:02;;;;;;;1.43;1.17;;;18.00;99.90;;;;;;4156855;28;20591;-81
2022/06/08 06:46:08;;;;;;;1.87;1.10;;;18.00;99.90;;;;;;4158869;28;20225;-81
2022/06/08 06:48:10;;;;;;;4.03;1.60;;;18.00;99.90;;;;;;4168498;28;20236;-82
2022/06/08 06:50:14;;;;;;;2.30;1.27;;;18.00;99.90;;;;;;4157946;28;20628;-81
2022/06/08 06:52:17;;;;;;;3.37;1.87;;;18.00;99.90;;;;;;4156799;28;20212;-82
2022/06/08 06:54:19;;;;;;;4.03;1.47;;;18.30;99.90;;;;;;4155524;28;20655;-81
2022/06/08 06:56:21;;;;;;;1.63;1.23;;;18.10;99.90;;;;;;4157036;28;20515;-81
2022/06/08 06:58:23;;;;;;;2.00;1.50;;;18.10;99.90;;;;;;4153447;28;20198;-81
2022/06/08 07:00:28;;;;;;;2.20;1.40;;;18.20;99.90;;;;;;4147293;28;20635;-82
2022/06/08 07:02:31;;;;;;;4.27;1.40;;;18.40;99.90;;;;;;4147059;28;20291;-81
2022/06/08 07:04:34;;;;;;;6.10;1.60;;;18.30;99.90;;;;;;4146595;28;20220;-81
2022/06/08 07:06:38;;;;;;;3.70;1.33;;;18.40;99.90;;;;;;4153242;28;20212;-85
2022/06/08 07:08:42;;;;;;;2.27;1.10;;;18.50;99.90;;;;;;4151387;28;20218;-81
2022/06/08 07:11:32;;;;;;;1.10;0.90;;;18.40;99.90;;;;;;4153198;28;21268;-80
2022/06/08 07:13:06;;;;;;;1.20;1.10;;;18.50;99.90;;;;;;4163148;28;20208;-83
2022/06/08 07:15:12;;;;;;;1.90;1.10;;;18.50;99.90;;;;;;4156452;28;20205;-81
2022/06/08 07:17:14;;;;;;;1.87;1.00;;;18.60;99.90;;;;;;4156885;28;20690;-82
2022/06/08 07:19:17;;;;;;;2.53;1.10;;;18.70;99.90;;;;;;4157586;28;20207;-82
2022/06/08 07:21:19;;;;;;;1.70;1.27;;;18.80;99.90;;;;;;4137231;28;20666;-83
2022/06/08 07:23:21;;;;;;;1.53;1.00;;;18.90;99.90;;;;;;4156106;28;20222;-82
2022/06/08 07:25:23;;;;;;;1.30;1.20;;;19.00;99.90;;;;;;4153175;28;20583;-83
2022/06/08 07:27:25;;;;;;;5.40;1.10;;;19.10;99.90;;;;;;4167647;28;20783;-83
2022/06/08 07:29:27;;;;;;;2.60;1.40;;;19.20;99.90;;;;;;4156148;28;20206;-82
2022/06/08 07:31:29;;;;;;;2.13;1.33;;;19.30;99.90;;;;;;4150115;28;20651;-82
2022/06/08 07:33:32;;;;;;;2.17;1.40;;;19.30;99.90;;;;;;4155377;28;20210;-81
2022/06/08 07:35:35;;;;;;;1.13;1.07;;;19.30;99.90;;;;;;4157646;28;20199;-83
2022/06/08 07:37:37;;;;;;;0.67;0.67;;;19.30;99.90;;;;;;4164824;28;20213;-82
2022/06/08 07:39:40;;;;;;;1.47;0.90;;;19.30;99.90;;;;;;4173008;28;20205;-82
2022/06/08 07:41:42;;;;;;;1.27;0.80;;;19.30;99.90;;;;;;4154786;28;20268;-83
2022/06/08 07:43:44;;;;;;;2.83;1.00;;;19.30;99.90;;;;;;4154972;28;20203;-82
2022/06/08 07:45:46;;;;;;;1.67;0.90;;;19.40;99.90;;;;;;4154966;28;20222;-83
2022/06/08 07:50:08;;;;;;;2.00;0.60;;;19.50;99.90;;;;;;4173324;28;20249;-81
2022/06/08 07:52:13;;;;;;;0.60;0.60;;;19.50;99.90;;;;;;4154346;28;20205;-82
2022/06/08 07:54:15;;;;;;;1.00;0.70;;;19.50;99.90;;;;;;4148897;28;20217;-82
2022/06/08 07:56:17;;;;;;;1.40;0.60;;;19.60;99.90;;;;;;4161614;28;20209;-82
2022/06/08 07:58:19;;;;;;;0.73;0.50;;;19.60;99.90;;;;;;4148663;28;20225;-82
2022/06/08 08:00:22;;;;;;;1.20;0.50;;;19.50;99.90;;;;;;4167462;28;20233;-83
2022/06/08 08:02:24;;;;;;;0.60;0.60;;;19.60;99.90;;;;;;4168847;28;20222;-83
2022/06/08 08:04:26;;;;;;;1.90;0.70;;;19.60;99.90;;;;;;4153396;28;20253;-83
2022/06/08 08:06:28;;;;;;;5.30;0.60;;;19.50;99.90;;;;;;4153802;28;20280;-83
2022/06/08 08:08:32;;;;;;;0.50;0.50;;;19.60;99.90;;;;;;4150524;28;21016;-83
2022/06/08 08:10:34;;;;;;;1.20;0.67;;;19.60;99.90;;;;;;4156734;28;20796;-82
2022/06/08 08:12:37;;;;;;;0.60;0.60;;;19.60;99.90;;;;;;4171205;28;20567;-83
2022/06/08 08:14:40;;;;;;;1.00;0.60;;;19.60;99.90;;;;;;4153979;28;20215;-82
2022/06/08 08:16:43;;;;;;;0.57;0.57;;;19.60;99.90;;;;;;4159360;28;20217;-82
2022/06/08 08:18:46;;;;;;;1.60;0.63;;;19.60;99.90;;;;;;4155802;28;20691;-82
2022/06/08 08:20:47;;;;;;;1.23;0.60;;;19.60;99.90;;;;;;4173757;28;20248;-82
2022/06/08 08:22:49;;;;;;;1.57;0.60;;;19.70;99.90;;;;;;4171842;28;20295;-82
2022/06/08 08:24:53;;;;;;;2.77;0.70;;;19.70;99.90;;;;;;4156027;28;20718;-82
2022/06/08 08:26:55;;;;;;;0.60;0.50;;;19.70;99.90;;;;;;4155720;28;20276;-83
2022/06/08 08:28:58;;;;;;;1.83;0.80;;;19.80;99.90;;;;;;4155747;28;20292;-83
2022/06/08 08:31:00;;;;;;;1.47;0.70;;;19.80;99.90;;;;;;4168423;28;20238;-82
2022/06/08 08:33:05;;;;;;;1.13;0.67;;;19.90;99.90;;;;;;4170774;28;20221;-83
2022/06/08 08:35:09;;;;;;;1.53;0.67;;;19.90;99.90;;;;;;4171716;28;20233;-83
2022/06/08 08:37:11;;;;;;;0.67;0.67;;;19.90;99.90;;;;;;4175607;28;20212;-82
2022/06/08 08:39:13;;;;;;;2.10;0.63;;;19.90;99.90;;;;;;4155437;28;20219;-82
2022/06/08 08:43:40;;;;;;;0.70;0.70;;;20.00;99.90;;;;;;4145535;28;20666;-82
2022/06/08 08:45:51;;;;;;;1.00;0.60;;;20.00;99.90;;;;;;4158008;28;20224;-82
2022/06/08 08:48:01;;;;;;;1.67;0.80;;;20.00;99.90;;;;;;4165846;28;20263;-83
2022/06/08 08:50:14;;;;;;;1.63;0.80;;;20.10;99.90;;;;;;4157303;28;20654;-81
2022/06/08 08:52:30;;;;;;;0.60;0.60;;;20.20;99.90;;;;;;4172291;28;20205;-82
2022/06/08 08:54:35;;;;;;;2.30;0.80;;;20.20;99.90;;;;;;4160876;28;20293;-83
2022/06/08 08:56:42;;;;;;;1.07;0.60;;;20.20;99.90;;;;;;4162791;28;20290;-84
2022/06/08 08:58:46;;;;;;;0.90;0.70;;;20.30;99.90;;;;;;4161000;28;20206;-83
2022/06/08 09:00:51;;;;;;;1.23;0.70;;;20.30;99.90;;;;;;4159451;28;20223;-82
2022/06/08 09:05:16;;;;;;;2.60;0.73;;;20.40;99.40;;;;;;4158987;28;20211;-82
2022/06/08 09:07:20;;;;;;;1.47;0.70;;;20.50;97.80;;;;;;4155729;28;20887;-82
2022/06/08 09:09:25;;;;;;;1.20;0.80;;;20.50;97.60;;;;;;4157574;28;20219;-81
2022/06/08 09:11:29;;;;;;;0.80;0.70;;;20.60;96.40;;;;;;4155685;28;20790;-84
2022/06/08 09:13:43;;;;;;;1.80;0.77;;;20.60;96.20;;;;;;4158786;28;20203;-83
2022/06/08 09:15:52;;;;;;;0.83;0.70;;;20.60;96.50;;;;;;4159793;28;20257;-82
2022/06/08 09:17:56;;;;;;;2.20;0.80;;;20.70;97.70;;;;;;4166602;28;20604;-82
2022/06/08 09:19:58;;;;;;;0.83;0.60;;;20.70;97.80;;;;;;4159251;28;20286;-81
2022/06/08 09:22:21;;;;;;;0.80;0.60;;;20.70;97.20;;;;;;4159798;28;20210;-82
2022/06/08 09:24:31;;;;;;;1.73;0.53;;;20.80;97.50;;;;;;4159219;28;20225;-82
2022/06/08 09:26:36;;;;;;;1.27;0.80;;;20.90;97.30;;;;;;4162478;28;20228;-82
2022/06/08 09:28:41;;;;;;;0.90;0.67;;;20.90;97.10;;;;;;4154327;28;20498;-83
2022/06/08 09:30:48;;;;;;;1.17;0.80;;;21.00;96.00;;;;;;4161157;28;20223;-82
2022/06/08 09:32:58;;;;;;;6.47;0.73;;;21.10;95.70;;;;;;4162879;28;20217;-81
2022/06/08 09:35:03;;;;;;;1.03;0.63;;;21.20;93.10;;;;;;4160053;28;20265;-82
2022/06/08 09:37:11;;;;;;;3.40;0.80;;;21.20;90.50;;;;;;4155475;28;20756;-83
2022/06/08 09:39:20;;;;;;;1.27;0.77;;;21.20;91.20;;;;;;4155374;28;20605;-83
2022/06/08 09:41:27;;;;;;;6.93;0.70;;;21.40;93.00;;;;;;4154452;28;20238;-80
2022/06/08 09:43:52;;;;;;;1.20;0.60;;;21.50;92.80;;;;;;4163571;28;20203;-82
2022/06/08 09:45:55;;;;;;;2.30;0.73;;;21.60;91.70;;;;;;4173545;28;21071;-82
2022/06/08 09:53:05;;;;;;;0.70;0.70;;;22.00;82.70;;;;;;4165208;28;20221;-82
2022/06/08 09:55:20;;;;;;;0.50;0.50;;;22.20;83.80;;;;;;4152494;28;20701;-81
2022/06/08 09:57:35;;;;;;;1.07;0.60;;;22.30;83.30;;;;;;4157071;28;20224;-81
2022/06/08 09:59:58;;;;;;;1.83;0.60;;;22.40;83.50;;;;;;4153272;28;20666;-81
2022/06/08 10:02:11;;;;;;;3.53;0.77;;;22.50;77.10;;;;;;4163555;28;20515;-82
2022/06/08 10:04:34;;;;;;;0.60;0.60;;;22.60;69.60;;;;;;4162411;28;20217;-80
2022/06/08 10:06:42;;;;;;;2.20;0.70;;;22.70;68.00;;;;;;4171984;28;20226;-81
2022/06/08 10:08:54;;;;;;;2.97;1.00;;;22.80;67.60;;;;;;4152509;28;20212;-81
2022/06/08 10:11:34;;;;;;;1.07;0.67;;;22.80;63.40;;;;;;4155071;28;20457;-81
2022/06/08 10:13:37;;;;;;;0.70;0.60;;;22.90;61.20;;;;;;4166513;28;20213;-81
2022/06/08 10:15:46;;;;;;;0.70;0.70;;;23.00;63.00;;;;;;4169625;28;20217;-82
2022/06/08 10:17:54;;;;;;;0.90;0.67;;;23.10;64.80;;;;;;4158233;28;20214;-81
2022/06/08 10:20:03;;;;;;;3.20;0.60;;;23.20;62.00;;;;;;4156133;28;20253;-81
2022/06/08 10:22:05;;;;;;;1.47;0.73;;;23.40;58.90;;;;;;4141477;28;20257;-81
2022/06/08 10:24:17;;;;;;;0.60;0.50;;;23.50;58.30;;;;;;4152172;28;20204;-81
2022/06/08 10:26:28;;;;;;;1.57;0.80;;;23.60;58.20;;;;;;4137167;28;20640;-82
2022/06/08 10:28:37;;;;;;;1.03;0.60;;;23.70;57.70;;;;;;4167192;28;20215;-81
2022/06/08 10:30:46;;;;;;;2.53;0.67;;;23.80;58.40;;;;;;4152756;28;20261;-82
2022/06/08 10:32:53;;;;;;;0.70;0.70;;;23.80;57.70;;;;;;4154138;28;20203;-81
2022/06/08 10:34:55;;;;;;;0.80;0.80;;;23.80;57.80;;;;;;4154293;28;20888;-82
2022/06/08 10:37:08;;;;;;;4.07;1.17;;;23.90;57.10;;;;;;4153556;28;20203;-82
2022/06/08 10:39:14;;;;;;;1.57;0.70;;;24.00;56.60;;;;;;4155255;28;20779;-82
2022/06/08 10:43:53;;;;;;;3.57;0.70;;;24.20;57.60;;;;;;4153132;28;20665;-81
2022/06/08 10:46:00;;;;;;;0.60;0.60;;;24.40;56.00;;;;;;4154625;28;20226;-82
2022/06/08 10:48:31;;;;;;;2.30;0.70;;;24.50;54.80;;;;;;4160229;28;20203;-82
2022/06/08 10:50:36;;;;;;;0.90;0.60;;;24.60;52.90;;;;;;4160117;28;20243;-82
2022/06/08 10:52:43;;;;;;;5.37;1.00;;;24.60;52.60;;;;;;4147034;28;20210;-82
2022/06/08 10:54:55;;;;;;;2.57;0.70;;;24.70;53.30;;;;;;4158221;28;20292;-82
2022/06/08 10:56:57;;;;;;;2.33;0.80;;;24.80;52.80;;;;;;4152532;28;20203;-81
2022/06/08 10:59:14;;;;;;;2.13;0.63;;;24.90;52.50;;;;;;4150112;28;20281;-81
2022/06/08 11:01:31;;;;;;;1.17;0.70;;;25.00;52.50;;;;;;4151758;28;20235;-81
2022/06/08 11:03:53;;;;;;;1.17;0.70;;;25.20;52.70;;;;;;4149228;28;20217;-81
2022/06/08 11:05:54;;;;;;;0.87;0.63;;;25.30;51.80;;;;;;4169728;28;20667;-83
2022/06/08 11:08:45;;;;;;;1.77;1.00;;;25.40;50.90;;;;;;4156811;28;20216;-82
2022/06/08 11:11:00;;;;;;;1.43;0.90;;;25.70;50.00;;;;;;4105031;28;20279;-82
2022/06/08 11:13:15;;;;;;;1.97;0.90;;;25.90;48.40;;;;;;4108437;28;20221;-82